This is the latest recevied weather packets stored in our database for station/object FW4141. If no packets are shown the sender has not sent any weather packets the latest 10 day(s).
| Time | Temp. | Humidity | Pressure | Rain* | Wind** | Luminosity | Snow |
|---|---|---|---|---|---|---|---|
| 1777770644 | 11.67° C | 55% | 1009.8 hPa | 0 mm | - | - | - |
| 1777767647 | 14.44° C | 48% | 1010.1 hPa | 0 mm | - | - | - |
| 1777767020 | 15° C | 46% | 1010.2 hPa | 0 mm | - | - | - |
| 1777766416 | 15.56° C | 45% | 1010.3 hPa | 0 mm | - | - | - |
| 1777765894 | 15.56° C | 44% | 1010.5 hPa | 0 mm | - | - | - |
| 1777757423 | 16.67° C | 43% | 1011.4 hPa | 0 mm | - | - | - |
| 1777741278 | 26.67° C | 24% | 1012.1 hPa | 0 mm | - | - | - |
| 1777740666 | 26.11° C | 22% | 1012.2 hPa | 0 mm | - | - | - |
| 1777733461 | 27.22° C | 21% | 1013.3 hPa | 0 mm | - | - | - |
| 1777728069 | 28.89° C | 13% | 1014.1 hPa | 0 mm | - | - | - |
| 1777722655 | 27.78° C | 14% | 1015.2 hPa | 0 mm | - | - | - |
| 1777722050 | 27.78° C | 13% | 1015.2 hPa | 0 mm | - | - | - |
| 1777721446 | 27.22° C | 21% | 1015.3 hPa | 0 mm | - | - | - |
| 1777719637 | 27.22° C | 21% | 1015.5 hPa | 0 mm | - | - | - |
| 1777719033 | 26.11° C | 21% | 1015.6 hPa | 0 mm | - | - | - |
| 1777717222 | 26.11° C | 22% | 1016 hPa | 0 mm | - | - | - |
| 1777713057 | 25° C | 25% | 1016.6 hPa | 0 mm | - | - | - |
| 1777710651 | 23.89° C | 30% | 1016.9 hPa | 0 mm | - | - | - |
| 1777709442 | 21.67° C | 40% | 1016.9 hPa | 0 mm | - | - | - |
| 1777707032 | 17.78° C | 43% | 1017 hPa | 0 mm | - | - | - |
| 1777706419 | 17.78° C | 43% | 1017.1 hPa | 0 mm | - | - | - |
| 1777705272 | 16.67° C | 51% | 1017.2 hPa | 0 mm | - | - | - |
| 1777695675 | 6.11° C | 90% | 1017.3 hPa | 0 mm | - | - | - |
| 1777695072 | 5° C | 89% | 1017.4 hPa | 0 mm | - | - | - |
| 1777692658 | 5° C | 86% | 1017.4 hPa | 0 mm | - | - | - |
* Rain latest hour (hover to see other rain measurements)
** Current wind speed in m/s (hover to see current wind gust speed)